sensor_id;sensor_type;location;lat;lon;timestamp;temperature;humidity
975;DHT22;6115;49.296;10.602;2023-03-01T00:04:34;-1.90;59.50
975;DHT22;6115;49.296;10.602;2023-03-01T00:09:36;-2.00;59.70
975;DHT22;6115;49.296;10.602;2023-03-01T00:14:37;-2.00;59.80
975;DHT22;6115;49.296;10.602;2023-03-01T00:19:38;-2.00;59.80
975;DHT22;6115;49.296;10.602;2023-03-01T00:24:38;-2.00;60.20
975;DHT22;6115;49.296;10.602;2023-03-01T00:29:39;-1.90;60.40
975;DHT22;6115;49.296;10.602;2023-03-01T00:34:39;-1.90;60.20
975;DHT22;6115;49.296;10.602;2023-03-01T00:39:40;-2.00;60.00
975;DHT22;6115;49.296;10.602;2023-03-01T00:44:40;-2.00;60.60
975;DHT22;6115;49.296;10.602;2023-03-01T00:49:41;-2.10;60.60
975;DHT22;6115;49.296;10.602;2023-03-01T00:54:41;-2.10;60.70
975;DHT22;6115;49.296;10.602;2023-03-01T00:59:42;-2.10;60.90
975;DHT22;6115;49.296;10.602;2023-03-01T01:04:42;-2.20;60.90
975;DHT22;6115;49.296;10.602;2023-03-01T01:09:43;-2.20;61.10
975;DHT22;6115;49.296;10.602;2023-03-01T01:14:44;-2.20;61.00
975;DHT22;6115;49.296;10.602;2023-03-01T01:19:44;-2.30;60.80
975;DHT22;6115;49.296;10.602;2023-03-01T01:24:45;-2.30;60.90
975;DHT22;6115;49.296;10.602;2023-03-01T01:29:46;-2.40;60.70
975;DHT22;6115;49.296;10.602;2023-03-01T01:34:46;-2.50;61.00
975;DHT22;6115;49.296;10.602;2023-03-01T01:39:47;-2.50;61.10
975;DHT22;6115;49.296;10.602;2023-03-01T01:44:47;-2.60;61.10
975;DHT22;6115;49.296;10.602;2023-03-01T01:49:54;-2.70;61.00
975;DHT22;6115;49.296;10.602;2023-03-01T01:55:09;-2.70;61.10
975;DHT22;6115;49.296;10.602;2023-03-01T02:00:23;-2.80;61.40
975;DHT22;6115;49.296;10.602;2023-03-01T02:10:53;-2.90;61.40
975;DHT22;6115;49.296;10.602;2023-03-01T02:15:54;-3.00;61.60
975;DHT22;6115;49.296;10.602;2023-03-01T02:21:10;-3.00;61.60
975;DHT22;6115;49.296;10.602;2023-03-01T02:26:23;-3.10;61.70
975;DHT22;6115;49.296;10.602;2023-03-01T02:31:26;-3.20;61.90
975;DHT22;6115;49.296;10.602;2023-03-01T02:36:47;-3.20;62.10
975;DHT22;6115;49.296;10.602;2023-03-01T02:41:52;-3.30;62.60
975;DHT22;6115;49.296;10.602;2023-03-01T02:46:56;-3.30;63.40
975;DHT22;6115;49.296;10.602;2023-03-01T02:57:18;-3.50;62.50
975;DHT22;6115;49.296;10.602;2023-03-01T03:02:26;-3.50;62.50
975;DHT22;6115;49.296;10.602;2023-03-01T03:07:38;-3.50;62.80
975;DHT22;6115;49.296;10.602;2023-03-01T03:12:40;-3.60;63.10
975;DHT22;6115;49.296;10.602;2023-03-01T03:17:41;-3.60;63.40
975;DHT22;6115;49.296;10.602;2023-03-01T03:22:42;-3.60;63.70
975;DHT22;6115;49.296;10.602;2023-03-01T03:27:45;-3.60;64.20
975;DHT22;6115;49.296;10.602;2023-03-01T03:32:47;-3.70;64.70
975;DHT22;6115;49.296;10.602;2023-03-01T03:37:53;-3.80;63.70
975;DHT22;6115;49.296;10.602;2023-03-01T03:43:05;-3.80;64.10
975;DHT22;6115;49.296;10.602;2023-03-01T03:48:08;-3.80;64.20
975;DHT22;6115;49.296;10.602;2023-03-01T03:53:11;-3.90;64.50
975;DHT22;6115;49.296;10.602;2023-03-01T03:58:12;-4.00;64.40
975;DHT22;6115;49.296;10.602;2023-03-01T04:03:14;-4.00;64.40
975;DHT22;6115;49.296;10.602;2023-03-01T04:08:15;-4.10;64.60
975;DHT22;6115;49.296;10.602;2023-03-01T04:13:21;-4.10;64.80
975;DHT22;6115;49.296;10.602;2023-03-01T04:18:23;-4.10;65.00
975;DHT22;6115;49.296;10.602;2023-03-01T04:23:24;-4.20;65.60
975;DHT22;6115;49.296;10.602;2023-03-01T04:28:28;-4.20;66.00
975;DHT22;6115;49.296;10.602;2023-03-01T04:33:29;-4.20;65.90
975;DHT22;6115;49.296;10.602;2023-03-01T04:38:29;-4.20;65.70
975;DHT22;6115;49.296;10.602;2023-03-01T04:43:30;-4.30;65.60
975;DHT22;6115;49.296;10.602;2023-03-01T04:48:31;-4.30;65.90
975;DHT22;6115;49.296;10.602;2023-03-01T04:53:32;-4.30;66.00
975;DHT22;6115;49.296;10.602;2023-03-01T04:58:33;-4.30;66.00
975;DHT22;6115;49.296;10.602;2023-03-01T05:03:33;-4.30;66.90
975;DHT22;6115;49.296;10.602;2023-03-01T05:08:34;-4.30;66.40
975;DHT22;6115;49.296;10.602;2023-03-01T05:13:38;-4.40;66.40
975;DHT22;6115;49.296;10.602;2023-03-01T05:18:40;-4.30;66.50
975;DHT22;6115;49.296;10.602;2023-03-01T05:23:41;-4.40;66.40
975;DHT22;6115;49.296;10.602;2023-03-01T05:28:41;-4.40;66.40
975;DHT22;6115;49.296;10.602;2023-03-01T05:33:42;-4.40;66.40
975;DHT22;6115;49.296;10.602;2023-03-01T05:38:43;-4.40;66.40
975;DHT22;6115;49.296;10.602;2023-03-01T05:43:44;-4.40;66.40
975;DHT22;6115;49.296;10.602;2023-03-01T05:48:45;-4.40;66.40
975;DHT22;6115;49.296;10.602;2023-03-01T05:53:45;-4.40;66.40
975;DHT22;6115;49.296;10.602;2023-03-01T05:58:48;-4.40;66.40
975;DHT22;6115;49.296;10.602;2023-03-01T06:03:49;-4.40;66.40
975;DHT22;6115;49.296;10.602;2023-03-01T06:08:50;-4.50;66.80
975;DHT22;6115;49.296;10.602;2023-03-01T06:13:51;-4.40;67.10
975;DHT22;6115;49.296;10.602;2023-03-01T06:18:52;-4.40;67.80
975;DHT22;6115;49.296;10.602;2023-03-01T06:23:52;-4.30;68.70
975;DHT22;6115;49.296;10.602;2023-03-01T06:28:53;-4.20;69.20
975;DHT22;6115;49.296;10.602;2023-03-01T06:33:54;-4.10;69.30
975;DHT22;6115;49.296;10.602;2023-03-01T06:38:54;-4.00;69.30
975;DHT22;6115;49.296;10.602;2023-03-01T06:43:55;-3.90;69.30
975;DHT22;6115;49.296;10.602;2023-03-01T06:48:55;-3.80;69.20
975;DHT22;6115;49.296;10.602;2023-03-01T06:53:56;-3.80;68.90
975;DHT22;6115;49.296;10.602;2023-03-01T06:58:56;-3.60;69.40
975;DHT22;6115;49.296;10.602;2023-03-01T07:03:57;-3.60;68.30
975;DHT22;6115;49.296;10.602;2023-03-01T07:08:57;-3.40;68.30
975;DHT22;6115;49.296;10.602;2023-03-01T07:13:58;-3.30;68.20
975;DHT22;6115;49.296;10.602;2023-03-01T07:19:00;-3.20;67.80
975;DHT22;6115;49.296;10.602;2023-03-01T07:24:00;-3.00;67.70
975;DHT22;6115;49.296;10.602;2023-03-01T07:29:03;-2.90;67.80
975;DHT22;6115;49.296;10.602;2023-03-01T07:34:03;-2.70;67.00
975;DHT22;6115;49.296;10.602;2023-03-01T07:39:04;-2.50;66.30
975;DHT22;6115;49.296;10.602;2023-03-01T07:44:05;-2.30;65.80
975;DHT22;6115;49.296;10.602;2023-03-01T07:49:05;-2.10;65.00
975;DHT22;6115;49.296;10.602;2023-03-01T07:54:06;-2.00;64.20
975;DHT22;6115;49.296;10.602;2023-03-01T07:59:06;-1.80;63.70
975;DHT22;6115;49.296;10.602;2023-03-01T08:04:08;-1.60;63.10
975;DHT22;6115;49.296;10.602;2023-03-01T08:09:09;-1.40;62.80
975;DHT22;6115;49.296;10.602;2023-03-01T08:14:09;-1.20;62.20
975;DHT22;6115;49.296;10.602;2023-03-01T08:19:12;-1.00;61.40
975;DHT22;6115;49.296;10.602;2023-03-01T08:24:12;-0.80;61.00
975;DHT22;6115;49.296;10.602;2023-03-01T08:29:13;-0.60;60.30
975;DHT22;6115;49.296;10.602;2023-03-01T08:34:17;-0.40;59.90
975;DHT22;6115;49.296;10.602;2023-03-01T08:39:19;-0.30;59.40
975;DHT22;6115;49.296;10.602;2023-03-01T08:44:20;-0.10;58.50
975;DHT22;6115;49.296;10.602;2023-03-01T08:49:21;0.10;58.70
975;DHT22;6115;49.296;10.602;2023-03-01T08:54:22;0.20;57.20
975;DHT22;6115;49.296;10.602;2023-03-01T08:59:22;0.50;56.90
975;DHT22;6115;49.296;10.602;2023-03-01T09:04:23;0.70;56.50
975;DHT22;6115;49.296;10.602;2023-03-01T09:09:24;0.80;55.90
975;DHT22;6115;49.296;10.602;2023-03-01T09:14:24;1.10;55.20
975;DHT22;6115;49.296;10.602;2023-03-01T09:19:25;1.70;54.20
975;DHT22;6115;49.296;10.602;2023-03-01T09:24:25;3.60;52.30
975;DHT22;6115;49.296;10.602;2023-03-01T09:29:26;4.90;48.30
975;DHT22;6115;49.296;10.602;2023-03-01T09:34:27;6.20;45.30
975;DHT22;6115;49.296;10.602;2023-03-01T09:39:27;5.80;43.60
975;DHT22;6115;49.296;10.602;2023-03-01T09:49:41;4.20;45.50
975;DHT22;6115;49.296;10.602;2023-03-01T09:54:51;5.20;45.80
975;DHT22;6115;49.296;10.602;2023-03-01T10:00:09;7.40;42.30
975;DHT22;6115;49.296;10.602;2023-03-01T10:10:33;9.40;37.20
975;DHT22;6115;49.296;10.602;2023-03-01T10:15:39;10.00;35.30
975;DHT22;6115;49.296;10.602;2023-03-01T10:21:09;10.80;33.70
975;DHT22;6115;49.296;10.602;2023-03-01T10:31:25;11.90;31.60
975;DHT22;6115;49.296;10.602;2023-03-01T10:36:32;11.50;32.30
975;DHT22;6115;49.296;10.602;2023-03-01T10:41:40;12.20;30.30
975;DHT22;6115;49.296;10.602;2023-03-01T10:46:45;12.50;30.60
975;DHT22;6115;49.296;10.602;2023-03-01T10:51:50;12.90;29.20
975;DHT22;6115;49.296;10.602;2023-03-01T10:56:54;13.80;29.10
975;DHT22;6115;49.296;10.602;2023-03-01T11:02:16;12.80;28.60
975;DHT22;6115;49.296;10.602;2023-03-01T11:07:17;13.20;29.70
975;DHT22;6115;49.296;10.602;2023-03-01T11:12:18;13.50;27.80
975;DHT22;6115;49.296;10.602;2023-03-01T11:17:24;13.10;28.40
975;DHT22;6115;49.296;10.602;2023-03-01T11:22:27;12.30;29.10
975;DHT22;6115;49.296;10.602;2023-03-01T11:27:31;11.10;29.00
975;DHT22;6115;49.296;10.602;2023-03-01T11:32:45;11.50;30.10
975;DHT22;6115;49.296;10.602;2023-03-01T11:38:09;11.60;30.10
975;DHT22;6115;49.296;10.602;2023-03-01T11:54:54;12.20;28.40
975;DHT22;6115;49.296;10.602;2023-03-01T12:00:20;12.20;29.50
975;DHT22;6115;49.296;10.602;2023-03-01T12:10:45;12.40;28.10
975;DHT22;6115;49.296;10.602;2023-03-01T12:37:54;12.80;26.10
975;DHT22;6115;49.296;10.602;2023-03-01T12:53:47;11.90;28.80
975;DHT22;6115;49.296;10.602;2023-03-01T12:59:18;12.10;28.40
975;DHT22;6115;49.296;10.602;2023-03-01T13:14:45;12.00;28.20
975;DHT22;6115;49.296;10.602;2023-03-01T13:19:56;12.10;28.00
975;DHT22;6115;49.296;10.602;2023-03-01T13:25:10;12.50;27.70
975;DHT22;6115;49.296;10.602;2023-03-01T13:35:44;13.20;27.00
975;DHT22;6115;49.296;10.602;2023-03-01T13:45:51;12.60;28.00
975;DHT22;6115;49.296;10.602;2023-03-01T13:50:59;12.50;27.90
975;DHT22;6115;49.296;10.602;2023-03-01T13:56:24;12.40;28.10
975;DHT22;6115;49.296;10.602;2023-03-01T14:01:29;12.10;28.50
975;DHT22;6115;49.296;10.602;2023-03-01T14:06:32;12.30;28.40
975;DHT22;6115;49.296;10.602;2023-03-01T14:17:14;12.80;27.70
975;DHT22;6115;49.296;10.602;2023-03-01T14:22:26;13.00;28.00
975;DHT22;6115;49.296;10.602;2023-03-01T14:27:38;13.00;28.40
975;DHT22;6115;49.296;10.602;2023-03-01T14:32:42;12.80;27.80
975;DHT22;6115;49.296;10.602;2023-03-01T14:37:43;12.10;28.90
975;DHT22;6115;49.296;10.602;2023-03-01T14:42:43;12.30;29.10
975;DHT22;6115;49.296;10.602;2023-03-01T14:47:44;12.30;29.30
975;DHT22;6115;49.296;10.602;2023-03-01T14:52:47;12.10;29.60
975;DHT22;6115;49.296;10.602;2023-03-01T14:57:50;11.70;29.70
975;DHT22;6115;49.296;10.602;2023-03-01T15:02:53;11.30;30.00
975;DHT22;6115;49.296;10.602;2023-03-01T15:07:54;11.20;30.90
975;DHT22;6115;49.296;10.602;2023-03-01T15:12:56;11.10;31.60
975;DHT22;6115;49.296;10.602;2023-03-01T15:17:59;11.00;31.60
975;DHT22;6115;49.296;10.602;2023-03-01T15:23:00;10.90;32.50
975;DHT22;6115;49.296;10.602;2023-03-01T15:28:02;11.00;32.00
975;DHT22;6115;49.296;10.602;2023-03-01T15:48:45;10.50;32.50
975;DHT22;6115;49.296;10.602;2023-03-01T15:53:50;10.10;33.50
975;DHT22;6115;49.296;10.602;2023-03-01T15:58:52;10.10;33.70
975;DHT22;6115;49.296;10.602;2023-03-01T16:03:52;10.00;33.80
975;DHT22;6115;49.296;10.602;2023-03-01T16:08:54;9.80;35.40
975;DHT22;6115;49.296;10.602;2023-03-01T16:13:54;9.60;35.90
975;DHT22;6115;49.296;10.602;2023-03-01T16:18:55;9.40;36.60
975;DHT22;6115;49.296;10.602;2023-03-01T16:23:56;9.30;36.40
975;DHT22;6115;49.296;10.602;2023-03-01T16:28:57;8.90;37.00
975;DHT22;6115;49.296;10.602;2023-03-01T16:33:58;8.60;38.10
975;DHT22;6115;49.296;10.602;2023-03-01T16:39:00;8.30;39.00
975;DHT22;6115;49.296;10.602;2023-03-01T16:44:01;8.00;39.40
975;DHT22;6115;49.296;10.602;2023-03-01T16:49:01;7.60;40.50
975;DHT22;6115;49.296;10.602;2023-03-01T16:54:03;7.30;40.70
975;DHT22;6115;49.296;10.602;2023-03-01T16:59:05;7.00;41.40
975;DHT22;6115;49.296;10.602;2023-03-01T17:04:06;6.60;42.40
975;DHT22;6115;49.296;10.602;2023-03-01T17:09:07;6.40;43.20
975;DHT22;6115;49.296;10.602;2023-03-01T17:14:08;6.10;43.80
975;DHT22;6115;49.296;10.602;2023-03-01T17:19:08;6.00;44.00
975;DHT22;6115;49.296;10.602;2023-03-01T17:24:09;5.80;44.40
975;DHT22;6115;49.296;10.602;2023-03-01T17:29:09;5.70;44.80
975;DHT22;6115;49.296;10.602;2023-03-01T17:34:10;5.50;45.30
975;DHT22;6115;49.296;10.602;2023-03-01T17:39:11;5.30;45.50
975;DHT22;6115;49.296;10.602;2023-03-01T17:44:12;5.20;45.70
975;DHT22;6115;49.296;10.602;2023-03-01T17:49:13;5.10;46.00
975;DHT22;6115;49.296;10.602;2023-03-01T17:54:13;4.90;46.30
975;DHT22;6115;49.296;10.602;2023-03-01T17:59:14;4.80;47.00
975;DHT22;6115;49.296;10.602;2023-03-01T18:04:16;4.60;47.10
975;DHT22;6115;49.296;10.602;2023-03-01T18:09:17;4.50;47.10
975;DHT22;6115;49.296;10.602;2023-03-01T18:14:18;4.40;47.80
975;DHT22;6115;49.296;10.602;2023-03-01T18:19:19;4.40;47.30
975;DHT22;6115;49.296;10.602;2023-03-01T18:24:20;4.40;47.60
975;DHT22;6115;49.296;10.602;2023-03-01T18:29:21;4.30;47.60
975;DHT22;6115;49.296;10.602;2023-03-01T18:34:22;4.30;47.60
975;DHT22;6115;49.296;10.602;2023-03-01T18:39:23;4.30;47.80
975;DHT22;6115;49.296;10.602;2023-03-01T18:44:24;4.20;47.70
975;DHT22;6115;49.296;10.602;2023-03-01T18:49:25;4.10;47.90
975;DHT22;6115;49.296;10.602;2023-03-01T18:54:26;4.10;48.20
975;DHT22;6115;49.296;10.602;2023-03-01T18:59:27;4.00;48.50
975;DHT22;6115;49.296;10.602;2023-03-01T19:04:29;3.80;48.80
975;DHT22;6115;49.296;10.602;2023-03-01T19:09:29;3.70;49.10
975;DHT22;6115;49.296;10.602;2023-03-01T19:14:30;3.50;49.90
975;DHT22;6115;49.296;10.602;2023-03-01T19:19:30;3.40;50.60
975;DHT22;6115;49.296;10.602;2023-03-01T19:24:31;3.30;50.50
975;DHT22;6115;49.296;10.602;2023-03-01T19:29:32;3.20;51.10
975;DHT22;6115;49.296;10.602;2023-03-01T19:34:33;3.00;51.90
975;DHT22;6115;49.296;10.602;2023-03-01T19:39:35;2.90;52.20
975;DHT22;6115;49.296;10.602;2023-03-01T19:44:36;2.80;52.30
975;DHT22;6115;49.296;10.602;2023-03-01T19:49:37;2.70;52.90
975;DHT22;6115;49.296;10.602;2023-03-01T19:54:37;2.60;53.00
975;DHT22;6115;49.296;10.602;2023-03-01T19:59:38;2.50;53.30
975;DHT22;6115;49.296;10.602;2023-03-01T20:04:39;2.50;53.50
975;DHT22;6115;49.296;10.602;2023-03-01T20:09:39;2.50;53.60
975;DHT22;6115;49.296;10.602;2023-03-01T20:14:40;2.40;54.10
975;DHT22;6115;49.296;10.602;2023-03-01T20:19:41;2.20;54.00
975;DHT22;6115;49.296;10.602;2023-03-01T20:24:42;2.30;54.00
975;DHT22;6115;49.296;10.602;2023-03-01T20:29:42;2.20;54.00
975;DHT22;6115;49.296;10.602;2023-03-01T20:34:45;2.10;54.00
975;DHT22;6115;49.296;10.602;2023-03-01T20:39:45;2.00;54.50
975;DHT22;6115;49.296;10.602;2023-03-01T20:44:46;2.00;54.70
975;DHT22;6115;49.296;10.602;2023-03-01T20:49:49;1.90;55.00
975;DHT22;6115;49.296;10.602;2023-03-01T20:54:51;1.90;55.00
975;DHT22;6115;49.296;10.602;2023-03-01T20:59:52;1.90;55.10
975;DHT22;6115;49.296;10.602;2023-03-01T21:04:52;1.80;55.10
975;DHT22;6115;49.296;10.602;2023-03-01T21:09:53;1.70;55.20
975;DHT22;6115;49.296;10.602;2023-03-01T21:14:53;1.60;55.40
975;DHT22;6115;49.296;10.602;2023-03-01T21:19:54;1.60;55.70
975;DHT22;6115;49.296;10.602;2023-03-01T21:24:54;1.50;55.90
975;DHT22;6115;49.296;10.602;2023-03-01T21:29:55;1.50;56.10
975;DHT22;6115;49.296;10.602;2023-03-01T21:34:55;1.40;56.10
975;DHT22;6115;49.296;10.602;2023-03-01T21:39:57;1.30;56.50
975;DHT22;6115;49.296;10.602;2023-03-01T21:44:58;1.20;56.40
975;DHT22;6115;49.296;10.602;2023-03-01T21:49:58;1.10;56.30
975;DHT22;6115;49.296;10.602;2023-03-01T21:54:59;1.00;56.40
975;DHT22;6115;49.296;10.602;2023-03-01T22:00:02;0.90;57.00
975;DHT22;6115;49.296;10.602;2023-03-01T22:05:04;0.90;57.20
975;DHT22;6115;49.296;10.602;2023-03-01T22:10:05;0.80;57.10
975;DHT22;6115;49.296;10.602;2023-03-01T22:15:07;0.60;57.00
975;DHT22;6115;49.296;10.602;2023-03-01T22:20:08;0.60;57.60
975;DHT22;6115;49.296;10.602;2023-03-01T22:25:10;0.60;58.50
975;DHT22;6115;49.296;10.602;2023-03-01T22:30:11;0.50;58.60
975;DHT22;6115;49.296;10.602;2023-03-01T22:35:13;0.50;58.50
975;DHT22;6115;49.296;10.602;2023-03-01T22:40:13;0.40;58.80
975;DHT22;6115;49.296;10.602;2023-03-01T22:45:14;0.40;58.90
975;DHT22;6115;49.296;10.602;2023-03-01T22:50:15;0.40;59.10
975;DHT22;6115;49.296;10.602;2023-03-01T22:55:15;0.30;59.50
975;DHT22;6115;49.296;10.602;2023-03-01T23:00:16;0.30;59.60
975;DHT22;6115;49.296;10.602;2023-03-01T23:05:17;0.20;60.20
975;DHT22;6115;49.296;10.602;2023-03-01T23:10:18;0.20;61.80
975;DHT22;6115;49.296;10.602;2023-03-01T23:15:18;0.20;61.00
975;DHT22;6115;49.296;10.602;2023-03-01T23:20:19;0.20;61.00
975;DHT22;6115;49.296;10.602;2023-03-01T23:25:20;0.10;60.90
975;DHT22;6115;49.296;10.602;2023-03-01T23:30:20;0.10;60.90
975;DHT22;6115;49.296;10.602;2023-03-01T23:35:21;0.10;60.90
975;DHT22;6115;49.296;10.602;2023-03-01T23:40:22;0.10;61.70
975;DHT22;6115;49.296;10.602;2023-03-01T23:45:22;0.00;61.30
975;DHT22;6115;49.296;10.602;2023-03-01T23:50:23;0.10;62.30
975;DHT22;6115;49.296;10.602;2023-03-01T23:55:25;0.10;61.50
